createdAt,value
2023-03-17T00:03:58.776Z,100105.41
2023-03-17T00:14:04.556Z,100106.03
2023-03-17T00:24:14.725Z,100104.31
2023-03-17T00:34:20.836Z,100103.56
2023-03-17T00:44:25.411Z,100089.03
2023-03-17T00:54:30.412Z,100073.91
2023-03-17T01:04:35.178Z,100076.50
2023-03-17T01:14:40.802Z,100077.38
2023-03-17T01:24:44.511Z,100056.94
2023-03-17T01:34:49.560Z,100042.34
2023-03-17T01:45:02.150Z,100033.56
2023-03-17T01:55:11.403Z,100021.75
2023-03-17T02:05:18.846Z,100020.25
2023-03-17T02:15:39.148Z,100001.25
2023-03-17T02:25:47.291Z,100014.31
2023-03-17T02:35:51.119Z,100002.81
2023-03-17T02:45:56.143Z,100015.38
2023-03-17T02:55:59.940Z,99996.72
2023-03-17T03:06:05.264Z,99985.66
2023-03-17T03:16:10.149Z,99998.56
2023-03-17T03:26:15.128Z,99996.13
2023-03-17T03:36:18.867Z,99984.34
2023-03-17T03:46:23.956Z,99984.41
2023-03-17T03:56:27.692Z,99989.88
2023-03-17T04:06:32.733Z,99967.00
2023-03-17T04:16:36.472Z,99963.72
2023-03-17T04:26:41.579Z,99976.50
2023-03-17T04:36:46.581Z,99973.09
2023-03-17T04:46:51.977Z,99977.19
2023-03-17T04:56:56.128Z,99976.69
2023-03-17T05:07:03.370Z,99984.78
2023-03-17T05:17:07.448Z,100001.09
2023-03-17T05:27:12.796Z,99995.66
2023-03-17T05:37:16.637Z,99991.22
2023-03-17T05:47:22.776Z,100003.66
2023-03-17T05:57:26.529Z,100015.88
2023-03-17T06:07:41.274Z,100015.50
2023-03-17T06:17:48.591Z,100007.88
2023-03-17T06:27:54.826Z,99996.22
2023-03-17T06:37:58.488Z,99981.06
2023-03-17T06:48:03.596Z,99982.84
2023-03-17T06:58:07.234Z,99995.91
2023-03-17T07:08:16.230Z,99991.06
2023-03-17T07:18:19.931Z,99995.75
2023-03-17T07:28:25.710Z,99975.47
2023-03-17T07:38:29.393Z,99974.16
2023-03-17T07:48:36.477Z,99956.94
2023-03-17T07:58:40.269Z,99932.44
2023-03-17T08:08:46.092Z,99927.84
2023-03-17T08:18:49.870Z,99919.75
2023-03-17T08:28:54.897Z,99906.59
2023-03-17T08:38:59.020Z,99891.44
2023-03-17T08:49:04.473Z,99889.88
2023-03-17T08:59:09.453Z,99895.59
2023-03-17T09:09:14.863Z,99890.81
2023-03-17T09:19:18.621Z,99890.78
2023-03-17T09:29:23.590Z,99869.97
2023-03-17T09:39:27.493Z,99844.72
2023-03-17T09:49:44.694Z,99848.59
2023-03-17T09:59:55.090Z,99836.22
2023-03-17T10:10:05.169Z,99834.44
2023-03-17T10:20:14.720Z,99830.00
2023-03-17T10:30:23.365Z,99829.91
2023-03-17T10:40:30.502Z,99814.81
2023-03-17T10:50:40.990Z,99809.34
2023-03-17T11:00:57.734Z,99804.91
2023-03-17T11:11:08.365Z,99801.50
2023-03-17T11:21:17.411Z,99792.38
2023-03-17T11:31:31.242Z,99791.75
2023-03-17T11:41:52.168Z,99766.91
2023-03-17T11:52:08.554Z,99751.81
2023-03-17T12:02:23.531Z,99743.50
2023-03-17T12:12:36.646Z,99731.34
2023-03-17T12:22:45.889Z,99715.47
2023-03-17T12:33:00.205Z,99705.59
2023-03-17T12:43:33.358Z,99698.91
2023-03-17T12:53:39.883Z,99694.78
2023-03-17T13:03:58.935Z,99683.72
2023-03-17T13:14:26.376Z,99667.09
2023-03-17T13:24:51.920Z,99671.13
2023-03-17T13:35:23.453Z,99650.59
2023-03-17T13:45:39.209Z,99652.56
2023-03-17T13:56:11.961Z,99644.97
2023-03-17T14:06:18.741Z,99635.78
2023-03-17T14:16:29.435Z,99637.34
2023-03-17T14:26:33.984Z,99633.25
2023-03-17T14:36:38.948Z,99619.03
2023-03-17T14:46:42.647Z,99603.78
2023-03-17T14:56:52.655Z,99599.53
2023-03-17T15:06:58.166Z,99582.69
2023-03-17T15:17:07.876Z,99577.72
2023-03-17T15:27:17.047Z,99569.84
2023-03-17T15:37:24.589Z,99569.59
2023-03-17T15:47:31.951Z,99568.53
2023-03-17T15:57:37.217Z,99564.97
2023-03-17T16:07:41.653Z,99573.41
2023-03-17T16:17:48.627Z,99574.69
2023-03-17T16:27:54.054Z,99585.53
2023-03-17T16:37:59.071Z,99608.72
2023-03-17T16:48:04.701Z,99613.34
2023-03-17T16:58:20.078Z,99619.09
2023-03-17T17:08:23.775Z,99625.34
2023-03-17T17:18:29.018Z,99635.91
2023-03-17T17:28:33.033Z,99636.94
2023-03-17T17:38:38.142Z,99632.22
2023-03-17T17:48:41.796Z,99637.81
2023-03-17T17:58:47.431Z,99641.59
2023-03-17T18:08:54.118Z,99641.41
2023-03-17T18:19:00.327Z,99666.16
2023-03-17T18:29:04.698Z,99681.50
2023-03-17T18:39:09.713Z,99675.06
2023-03-17T18:49:13.288Z,99659.44
2023-03-17T18:59:18.267Z,99660.88
2023-03-17T19:09:22.301Z,99671.13
2023-03-17T19:19:27.373Z,99673.84
2023-03-17T19:29:31.185Z,99682.78
2023-03-17T19:39:37.552Z,99688.25
2023-03-17T19:49:41.922Z,99691.34
2023-03-17T19:59:47.259Z,99706.63
2023-03-17T20:09:51.219Z,99731.88
2023-03-17T20:19:56.431Z,99728.81
2023-03-17T20:30:00.249Z,99751.69
2023-03-17T20:40:08.320Z,99742.06
2023-03-17T20:50:13.432Z,99739.44
2023-03-17T21:00:22.152Z,99727.91
2023-03-17T21:10:26.010Z,99733.22
2023-03-17T21:20:31.407Z,99733.22
2023-03-17T21:30:36.930Z,99717.34
2023-03-17T21:40:42.854Z,99714.47
2023-03-17T21:50:46.619Z,99734.69
2023-03-17T22:00:52.370Z,99738.22
2023-03-17T22:10:56.542Z,99741.19
2023-03-17T22:21:02.648Z,99749.03
2023-03-17T22:31:13.309Z,99737.50
2023-03-17T22:41:22.449Z,99751.88
2023-03-17T22:51:27.511Z,99770.97
2023-03-17T23:01:33.225Z,99764.75
2023-03-17T23:11:37.424Z,99765.28
2023-03-17T23:21:42.640Z,99790.47
2023-03-17T23:31:46.592Z,99807.28
2023-03-17T23:41:51.684Z,99823.63
2023-03-17T23:51:55.313Z,99824.53
